sensor_id;sensor_type;location;lat;lon;timestamp;pressure;altitude;pressure_sealevel;temperature
64184;BMP280;50485;49.768;8.636;2022-09-03T00:02:03;99836.84;;;22.01
64184;BMP280;50485;49.768;8.636;2022-09-03T00:04:38;99838.41;;;22.02
64184;BMP280;50485;49.768;8.636;2022-09-03T00:07:15;99834.91;;;22.02
64184;BMP280;50485;49.768;8.636;2022-09-03T00:09:42;99828.66;;;22.01
64184;BMP280;50485;49.768;8.636;2022-09-03T00:12:15;99824.41;;;22.00
64184;BMP280;50485;49.768;8.636;2022-09-03T00:14:46;99825.94;;;21.98
64184;BMP280;50485;49.768;8.636;2022-09-03T00:17:14;99821.28;;;21.98
64184;BMP280;50485;49.768;8.636;2022-09-03T00:19:43;99824.78;;;21.99
64184;BMP280;50485;49.768;8.636;2022-09-03T00:22:14;99822.84;;;21.99
64184;BMP280;50485;49.768;8.636;2022-09-03T00:24:40;99822.84;;;21.99
64184;BMP280;50485;49.768;8.636;2022-09-03T00:27:09;99824.38;;;21.97
64184;BMP280;50485;49.768;8.636;2022-09-03T00:29:45;99817.75;;;21.98
64184;BMP280;50485;49.768;8.636;2022-09-03T00:32:13;99819.31;;;22.02
64184;BMP280;50485;49.768;8.636;2022-09-03T00:34:42;99821.28;;;21.98
64184;BMP280;50485;49.768;8.636;2022-09-03T00:37:09;99828.28;;;21.99
64184;BMP280;50485;49.768;8.636;2022-09-03T00:39:35;99822.84;;;21.99
64184;BMP280;50485;49.768;8.636;2022-09-03T00:47:26;99817.38;;;21.99
64184;BMP280;50485;49.768;8.636;2022-09-03T00:55:47;99837.22;;;22.10
64184;BMP280;50485;49.768;8.636;2022-09-03T01:00:23;99831.41;;;22.08
64184;BMP280;50485;49.768;8.636;2022-09-03T01:03:00;99829.03;;;22.10
64184;BMP280;50485;49.768;8.636;2022-09-03T01:05:52;99827.09;;;22.07
64184;BMP280;50485;49.768;8.636;2022-09-03T01:08:34;99823.22;;;22.08
64184;BMP280;50485;49.768;8.636;2022-09-03T01:22:19;99817.72;;;22.05
64184;BMP280;50485;49.768;8.636;2022-09-03T01:35:00;99819.69;;;22.04
64184;BMP280;50485;49.768;8.636;2022-09-03T01:40:02;99812.69;;;22.03
64184;BMP280;50485;49.768;8.636;2022-09-03T01:47:47;99822.41;;;22.01
64184;BMP280;50485;49.768;8.636;2022-09-03T01:50:28;99822.03;;;22.02
64184;BMP280;50485;49.768;8.636;2022-09-03T01:53:00;99829.81;;;22.07
64184;BMP280;50485;49.768;8.636;2022-09-03T01:55:31;99837.63;;;22.05
64184;BMP280;50485;49.768;8.636;2022-09-03T01:58:09;99834.13;;;22.08
64184;BMP280;50485;49.768;8.636;2022-09-03T02:00:36;99832.94;;;22.09
64184;BMP280;50485;49.768;8.636;2022-09-03T02:03:03;99830.59;;;22.11
64184;BMP280;50485;49.768;8.636;2022-09-03T02:05:30;99836.88;;;22.08
64184;BMP280;50485;49.768;8.636;2022-09-03T02:08:05;99826.72;;;22.05
64184;BMP280;50485;49.768;8.636;2022-09-03T02:10:31;99838.38;;;22.09
64184;BMP280;50485;49.768;8.636;2022-09-03T02:13:04;99833.34;;;22.08
64184;BMP280;50485;49.768;8.636;2022-09-03T02:15:31;99829.03;;;22.10
64184;BMP280;50485;49.768;8.636;2022-09-03T02:17:59;99828.69;;;22.08
64184;BMP280;50485;49.768;8.636;2022-09-03T02:20:26;99840.75;;;22.07
64184;BMP280;50485;49.768;8.636;2022-09-03T02:22:53;99835.28;;;22.07
64184;BMP280;50485;49.768;8.636;2022-09-03T02:25:18;99834.50;;;22.10
64184;BMP280;50485;49.768;8.636;2022-09-03T02:27:45;99837.63;;;22.09
64184;BMP280;50485;49.768;8.636;2022-09-03T02:30:12;99843.47;;;22.07
64184;BMP280;50485;49.768;8.636;2022-09-03T02:32:37;99847.34;;;22.13
64184;BMP280;50485;49.768;8.636;2022-09-03T02:35:03;99845.38;;;22.17
64184;BMP280;50485;49.768;8.636;2022-09-03T02:37:28;99846.56;;;22.16
64184;BMP280;50485;49.768;8.636;2022-09-03T02:39:53;99843.06;;;22.16
64184;BMP280;50485;49.768;8.636;2022-09-03T02:42:19;99845.81;;;22.16
64184;BMP280;50485;49.768;8.636;2022-09-03T02:44:49;99837.97;;;22.18
64184;BMP280;50485;49.768;8.636;2022-09-03T02:47:15;99835.66;;;22.13
64184;BMP280;50485;49.768;8.636;2022-09-03T02:49:44;99839.94;;;22.10
64184;BMP280;50485;49.768;8.636;2022-09-03T02:52:10;99839.56;;;22.15
64184;BMP280;50485;49.768;8.636;2022-09-03T02:54:36;99834.06;;;22.23
64184;BMP280;50485;49.768;8.636;2022-09-03T02:57:13;99839.56;;;22.15
64184;BMP280;50485;49.768;8.636;2022-09-03T02:59:39;99844.59;;;22.20
64184;BMP280;50485;49.768;8.636;2022-09-03T03:02:05;99842.25;;;22.23
64184;BMP280;50485;49.768;8.636;2022-09-03T03:04:30;99842.25;;;22.26
64184;BMP280;50485;49.768;8.636;2022-09-03T03:06:56;99842.63;;;22.25
64184;BMP280;50485;49.768;8.636;2022-09-03T03:09:21;99840.66;;;22.25
64184;BMP280;50485;49.768;8.636;2022-09-03T03:11:46;99832.47;;;22.25
64184;BMP280;50485;49.768;8.636;2022-09-03T03:14:13;99828.19;;;22.31
64184;BMP280;50485;49.768;8.636;2022-09-03T03:16:39;99832.44;;;22.36
64184;BMP280;50485;49.768;8.636;2022-09-03T03:19:04;99834.38;;;22.39
64184;BMP280;50485;49.768;8.636;2022-09-03T03:21:29;99830.88;;;22.42
64184;BMP280;50485;49.768;8.636;2022-09-03T03:23:54;99834.06;;;22.23
64184;BMP280;50485;49.768;8.636;2022-09-03T03:26:20;99818.03;;;22.28
64184;BMP280;50485;49.768;8.636;2022-09-03T03:28:48;99818.44;;;22.34
64184;BMP280;50485;49.768;8.636;2022-09-03T03:31:15;99820.75;;;22.39
64184;BMP280;50485;49.768;8.636;2022-09-03T03:33:41;99822.31;;;22.33
64184;BMP280;50485;49.768;8.636;2022-09-03T03:36:07;99828.13;;;22.42
64184;BMP280;50485;49.768;8.636;2022-09-03T03:38:33;99835.50;;;22.48
64184;BMP280;50485;49.768;8.636;2022-09-03T03:40:59;99840.16;;;22.51
64184;BMP280;50485;49.768;8.636;2022-09-03T03:43:30;99831.22;;;22.55
64184;BMP280;50485;49.768;8.636;2022-09-03T03:45:56;99837.81;;;22.57
64184;BMP280;50485;49.768;8.636;2022-09-03T03:48:22;99842.88;;;22.59
64184;BMP280;50485;49.768;8.636;2022-09-03T03:50:47;99838.94;;;22.60
64184;BMP280;50485;49.768;8.636;2022-09-03T03:53:13;99840.53;;;22.61
64184;BMP280;50485;49.768;8.636;2022-09-03T03:55:38;99842.88;;;22.62
64184;BMP280;50485;49.768;8.636;2022-09-03T03:58:03;99839.34;;;22.62
64184;BMP280;50485;49.768;8.636;2022-09-03T04:00:28;99843.63;;;22.59
64184;BMP280;50485;49.768;8.636;2022-09-03T04:02:53;99836.19;;;22.63
64184;BMP280;50485;49.768;8.636;2022-09-03T04:05:19;99846.78;;;22.61
64184;BMP280;50485;49.768;8.636;2022-09-03T04:07:44;99843.63;;;22.59
64184;BMP280;50485;49.768;8.636;2022-09-03T04:10:09;99837.03;;;22.57
64184;BMP280;50485;49.768;8.636;2022-09-03T04:12:34;99832.34;;;22.61
64184;BMP280;50485;49.768;8.636;2022-09-03T04:15:00;99835.06;;;22.64
64184;BMP280;50485;49.768;8.636;2022-09-03T04:17:25;99843.63;;;22.66
64184;BMP280;50485;49.768;8.636;2022-09-03T04:19:51;99837.47;;;22.48
64184;BMP280;50485;49.768;8.636;2022-09-03T04:22:16;99825.78;;;22.44
64184;BMP280;50485;49.768;8.636;2022-09-03T04:24:43;99826.53;;;22.55
64184;BMP280;50485;49.768;8.636;2022-09-03T04:27:08;99827.28;;;22.56
64184;BMP280;50485;49.768;8.636;2022-09-03T04:29:33;99824.22;;;22.46
64184;BMP280;50485;49.768;8.636;2022-09-03T04:31:59;99821.09;;;22.44
64184;BMP280;50485;49.768;8.636;2022-09-03T04:34:42;99823.84;;;22.41
64184;BMP280;50485;49.768;8.636;2022-09-03T04:37:08;99829.25;;;22.51
64184;BMP280;50485;49.768;8.636;2022-09-03T04:39:33;99826.06;;;22.60
64184;BMP280;50485;49.768;8.636;2022-09-03T04:41:59;99837.03;;;22.53
64184;BMP280;50485;49.768;8.636;2022-09-03T04:44:24;99837.44;;;22.55
64184;BMP280;50485;49.768;8.636;2022-09-03T04:46:49;99841.31;;;22.61
64184;BMP280;50485;49.768;8.636;2022-09-03T04:49:14;99836.66;;;22.58
64184;BMP280;50485;49.768;8.636;2022-09-03T04:51:39;99844.13;;;22.47
64184;BMP280;50485;49.768;8.636;2022-09-03T04:54:04;99841.38;;;22.50
64184;BMP280;50485;49.768;8.636;2022-09-03T04:56:31;99842.16;;;22.51
64184;BMP280;50485;49.768;8.636;2022-09-03T04:59:00;99831.69;;;22.32
64184;BMP280;50485;49.768;8.636;2022-09-03T05:01:26;99840.66;;;22.36
64184;BMP280;50485;49.768;8.636;2022-09-03T05:03:52;99840.22;;;22.44
64184;BMP280;50485;49.768;8.636;2022-09-03T05:06:18;99849.56;;;22.43
64184;BMP280;50485;49.768;8.636;2022-09-03T05:08:46;99846.88;;;22.36
64184;BMP280;50485;49.768;8.636;2022-09-03T05:11:12;99852.34;;;22.26
64184;BMP280;50485;49.768;8.636;2022-09-03T05:13:37;99849.28;;;22.20
64184;BMP280;50485;49.768;8.636;2022-09-03T05:16:03;99846.56;;;22.20
64184;BMP280;50485;49.768;8.636;2022-09-03T05:18:29;99848.88;;;22.21
64184;BMP280;50485;49.768;8.636;2022-09-03T05:20:58;99841.50;;;22.11
64184;BMP280;50485;49.768;8.636;2022-09-03T05:23:24;99853.19;;;22.19
64184;BMP280;50485;49.768;8.636;2022-09-03T05:25:56;99859.38;;;22.34
64184;BMP280;50485;49.768;8.636;2022-09-03T05:28:23;99851.16;;;22.41
64184;BMP280;50485;49.768;8.636;2022-09-03T05:30:56;99862.44;;;22.50
64184;BMP280;50485;49.768;8.636;2022-09-03T05:33:22;99867.06;;;22.53
64184;BMP280;50485;49.768;8.636;2022-09-03T05:35:47;99865.50;;;22.56
64184;BMP280;50485;49.768;8.636;2022-09-03T05:38:12;99870.59;;;22.57
64184;BMP280;50485;49.768;8.636;2022-09-03T05:40:39;99872.94;;;22.59
64184;BMP280;50485;49.768;8.636;2022-09-03T05:43:05;99875.63;;;22.62
64184;BMP280;50485;49.768;8.636;2022-09-03T05:45:30;99880.31;;;22.62
64184;BMP280;50485;49.768;8.636;2022-09-03T05:47:58;99884.59;;;22.63
64184;BMP280;50485;49.768;8.636;2022-09-03T05:50:23;99888.88;;;22.64
64184;BMP280;50485;49.768;8.636;2022-09-03T05:52:49;99888.50;;;22.65
64184;BMP280;50485;49.768;8.636;2022-09-03T05:55:14;99892.38;;;22.68
64184;BMP280;50485;49.768;8.636;2022-09-03T05:57:39;99896.66;;;22.69
64184;BMP280;50485;49.768;8.636;2022-09-03T06:00:05;99912.66;;;22.70
64184;BMP280;50485;49.768;8.636;2022-09-03T06:02:30;99910.72;;;22.71
64184;BMP280;50485;49.768;8.636;2022-09-03T06:04:56;99908.53;;;22.30
64184;BMP280;50485;49.768;8.636;2022-09-03T06:07:21;99908.84;;;22.43
64184;BMP280;50485;49.768;8.636;2022-09-03T06:09:46;99920.94;;;22.42
64184;BMP280;50485;49.768;8.636;2022-09-03T06:12:12;99916.63;;;22.59
64184;BMP280;50485;49.768;8.636;2022-09-03T06:14:37;99924.38;;;22.67
64184;BMP280;50485;49.768;8.636;2022-09-03T06:17:02;99922.41;;;22.71
64184;BMP280;50485;49.768;8.636;2022-09-03T06:19:27;99927.06;;;22.74
64184;BMP280;50485;49.768;8.636;2022-09-03T06:21:52;99936.03;;;22.78
64184;BMP280;50485;49.768;8.636;2022-09-03T06:24:18;99925.47;;;22.80
64184;BMP280;50485;49.768;8.636;2022-09-03T06:26:44;99935.25;;;22.81
64184;BMP280;50485;49.768;8.636;2022-09-03T06:29:10;99937.97;;;22.85
64184;BMP280;50485;49.768;8.636;2022-09-03T06:31:35;99939.91;;;22.88
64184;BMP280;50485;49.768;8.636;2022-09-03T06:34:01;99950.00;;;22.91
64184;BMP280;50485;49.768;8.636;2022-09-03T06:36:26;99950.81;;;22.92
64184;BMP280;50485;49.768;8.636;2022-09-03T06:38:53;99947.66;;;22.93
64184;BMP280;50485;49.768;8.636;2022-09-03T06:41:21;99951.16;;;22.94
64184;BMP280;50485;49.768;8.636;2022-09-03T06:43:50;99955.09;;;22.96
64184;BMP280;50485;49.768;8.636;2022-09-03T06:46:16;99942.59;;;22.99
64184;BMP280;50485;49.768;8.636;2022-09-03T06:48:42;99951.94;;;22.98
64184;BMP280;50485;49.768;8.636;2022-09-03T06:51:14;99955.06;;;23.00
64184;BMP280;50485;49.768;8.636;2022-09-03T06:53:41;99955.81;;;23.07
64184;BMP280;50485;49.768;8.636;2022-09-03T06:56:07;99954.25;;;23.06
64184;BMP280;50485;49.768;8.636;2022-09-03T06:58:34;99963.56;;;23.12
64184;BMP280;50485;49.768;8.636;2022-09-03T07:01:11;99963.56;;;23.16
64184;BMP280;50485;49.768;8.636;2022-09-03T07:03:38;99963.53;;;23.20
64184;BMP280;50485;49.768;8.636;2022-09-03T07:06:04;99965.06;;;23.24
64184;BMP280;50485;49.768;8.636;2022-09-03T07:08:30;99957.66;;;23.25
64184;BMP280;50485;49.768;8.636;2022-09-03T07:10:57;99960.38;;;23.25
64184;BMP280;50485;49.768;8.636;2022-09-03T07:13:23;99957.44;;;22.87
64184;BMP280;50485;49.768;8.636;2022-09-03T07:15:56;99958.19;;;22.95
64184;BMP280;50485;49.768;8.636;2022-09-03T07:18:21;99958.53;;;23.07
64184;BMP280;50485;49.768;8.636;2022-09-03T07:20:47;99953.13;;;22.90
64184;BMP280;50485;49.768;8.636;2022-09-03T07:23:12;99948.41;;;23.01
64184;BMP280;50485;49.768;8.636;2022-09-03T07:25:40;99954.31;;;22.96
64184;BMP280;50485;49.768;8.636;2022-09-03T07:28:05;99959.75;;;22.99
64184;BMP280;50485;49.768;8.636;2022-09-03T07:30:31;99960.53;;;23.00
64184;BMP280;50485;49.768;8.636;2022-09-03T07:32:56;99957.56;;;22.62
64184;BMP280;50485;49.768;8.636;2022-09-03T07:35:25;99950.63;;;22.33
64184;BMP280;50485;49.768;8.636;2022-09-03T07:37:50;99963.78;;;22.63
64184;BMP280;50485;49.768;8.636;2022-09-03T07:40:16;99955.91;;;22.82
64184;BMP280;50485;49.768;8.636;2022-09-03T07:42:43;99952.38;;;22.93
64184;BMP280;50485;49.768;8.636;2022-09-03T07:45:08;99962.06;;;22.97
64184;BMP280;50485;49.768;8.636;2022-09-03T07:47:35;99962.84;;;23.01
64184;BMP280;50485;49.768;8.636;2022-09-03T07:50:02;99965.97;;;23.07
64184;BMP280;50485;49.768;8.636;2022-09-03T07:52:27;99971.78;;;23.12
64184;BMP280;50485;49.768;8.636;2022-09-03T07:54:53;99965.50;;;23.19
64184;BMP280;50485;49.768;8.636;2022-09-03T07:57:18;99965.06;;;23.24
64184;BMP280;50485;49.768;8.636;2022-09-03T07:59:43;99969.78;;;23.20
64184;BMP280;50485;49.768;8.636;2022-09-03T08:02:08;99974.47;;;23.23
64184;BMP280;50485;49.768;8.636;2022-09-03T08:04:33;99981.44;;;23.28
64184;BMP280;50485;49.768;8.636;2022-09-03T08:07:00;99984.56;;;23.33
64184;BMP280;50485;49.768;8.636;2022-09-03T08:09:25;99985.34;;;23.34
64184;BMP280;50485;49.768;8.636;2022-09-03T08:11:50;99980.22;;;23.36
64184;BMP280;50485;49.768;8.636;2022-09-03T08:14:16;99986.13;;;23.34
64184;BMP280;50485;49.768;8.636;2022-09-03T08:16:43;99977.13;;;23.37
64184;BMP280;50485;49.768;8.636;2022-09-03T08:19:08;99975.50;;;23.40
64184;BMP280;50485;49.768;8.636;2022-09-03T08:21:35;99966.63;;;23.25
64184;BMP280;50485;49.768;8.636;2022-09-03T08:24:00;99968.28;;;23.05
64184;BMP280;50485;49.768;8.636;2022-09-03T08:26:32;99958.22;;;22.88
64184;BMP280;50485;49.768;8.636;2022-09-03T08:28:58;99961.34;;;22.90
64184;BMP280;50485;49.768;8.636;2022-09-03T08:31:23;99958.09;;;23.16
64184;BMP280;50485;49.768;8.636;2022-09-03T08:33:51;99960.78;;;23.27
64184;BMP280;50485;49.768;8.636;2022-09-03T08:36:17;99957.50;;;23.46
64184;BMP280;50485;49.768;8.636;2022-09-03T08:38:43;99959.72;;;23.65
64184;BMP280;50485;49.768;8.636;2022-09-03T08:41:16;99956.38;;;24.29
64184;BMP280;50485;49.768;8.636;2022-09-03T08:46:07;99980.88;;;24.02
64184;BMP280;50485;49.768;8.636;2022-09-03T08:48:33;99977.00;;;24.00
64184;BMP280;50485;49.768;8.636;2022-09-03T08:50:58;99977.00;;;24.00
64184;BMP280;50485;49.768;8.636;2022-09-03T08:55:58;99988.53;;;23.77
64184;BMP280;50485;49.768;8.636;2022-09-03T08:58:25;99988.16;;;23.78
64184;BMP280;50485;49.768;8.636;2022-09-03T09:01:00;99979.09;;;23.82
64184;BMP280;50485;49.768;8.636;2022-09-03T09:03:41;99992.78;;;23.82
64184;BMP280;50485;49.768;8.636;2022-09-03T09:06:15;99998.28;;;23.78
64184;BMP280;50485;49.768;8.636;2022-09-03T09:08:46;100001.06;;;23.74
64184;BMP280;50485;49.768;8.636;2022-09-03T09:11:30;100005.75;;;23.74
64184;BMP280;50485;49.768;8.636;2022-09-03T09:13:58;99999.94;;;23.68
64184;BMP280;50485;49.768;8.636;2022-09-03T09:16:33;100007.38;;;23.71
64184;BMP280;50485;49.768;8.636;2022-09-03T09:19:04;100014.00;;;23.70
64184;BMP280;50485;49.768;8.636;2022-09-03T09:21:36;100013.22;;;23.70
64184;BMP280;50485;49.768;8.636;2022-09-03T09:24:06;100029.66;;;23.66
64184;BMP280;50485;49.768;8.636;2022-09-03T09:26:35;100039.47;;;23.60
64184;BMP280;50485;49.768;8.636;2022-09-03T09:29:04;100035.56;;;23.58
64184;BMP280;50485;49.768;8.636;2022-09-03T09:31:30;100030.09;;;23.58
64184;BMP280;50485;49.768;8.636;2022-09-03T09:34:06;100036.31;;;23.62
64184;BMP280;50485;49.768;8.636;2022-09-03T09:36:34;100032.81;;;23.61
64184;BMP280;50485;49.768;8.636;2022-09-03T09:39:08;100035.50;;;23.68
64184;BMP280;50485;49.768;8.636;2022-09-03T09:41:33;100031.84;;;23.89
64184;BMP280;50485;49.768;8.636;2022-09-03T09:43:59;100022.88;;;23.82
64184;BMP280;50485;49.768;8.636;2022-09-03T09:46:38;100013.59;;;23.72
64184;BMP280;50485;49.768;8.636;2022-09-03T09:52:09;100009.44;;;23.50
64184;BMP280;50485;49.768;8.636;2022-09-03T09:54:38;100017.97;;;23.62
64184;BMP280;50485;49.768;8.636;2022-09-03T09:57:05;100020.22;;;23.71
64184;BMP280;50485;49.768;8.636;2022-09-03T09:59:30;100019.97;;;24.06
64184;BMP280;50485;49.768;8.636;2022-09-03T10:04:40;100028.22;;;24.03
64184;BMP280;50485;49.768;8.636;2022-09-03T10:07:27;100019.19;;;24.02
64184;BMP280;50485;49.768;8.636;2022-09-03T10:09:58;100028.47;;;24.16
64184;BMP280;50485;49.768;8.636;2022-09-03T10:12:28;100025.53;;;24.33
64184;BMP280;50485;49.768;8.636;2022-09-03T10:14:56;100023.97;;;24.36
64184;BMP280;50485;49.768;8.636;2022-09-03T10:17:26;100029.50;;;24.32
64184;BMP280;50485;49.768;8.636;2022-09-03T10:20:14;100025.59;;;23.89
64184;BMP280;50485;49.768;8.636;2022-09-03T10:22:55;100019.94;;;24.10
64184;BMP280;50485;49.768;8.636;2022-09-03T10:25:21;100021.13;;;24.05
64184;BMP280;50485;49.768;8.636;2022-09-03T10:27:49;100016.41;;;24.09
64184;BMP280;50485;49.768;8.636;2022-09-03T10:30:15;100012.69;;;23.89
64184;BMP280;50485;49.768;8.636;2022-09-03T10:32:44;100016.03;;;24.07
64184;BMP280;50485;49.768;8.636;2022-09-03T10:40:50;100012.63;;;23.96
64184;BMP280;50485;49.768;8.636;2022-09-03T10:43:21;100010.66;;;23.97
64184;BMP280;50485;49.768;8.636;2022-09-03T10:46:05;100015.16;;;24.18
64184;BMP280;50485;49.768;8.636;2022-09-03T10:51:05;100005.28;;;23.83
64184;BMP280;50485;49.768;8.636;2022-09-03T10:56:08;99996.31;;;23.86
64184;BMP280;50485;49.768;8.636;2022-09-03T10:58:58;100000.47;;;23.97
64184;BMP280;50485;49.768;8.636;2022-09-03T11:06:39;99990.34;;;24.35
64184;BMP280;50485;49.768;8.636;2022-09-03T11:11:48;99996.03;;;24.52
64184;BMP280;50485;49.768;8.636;2022-09-03T11:14:15;99996.75;;;24.56
64184;BMP280;50485;49.768;8.636;2022-09-03T11:16:53;99997.06;;;24.61
64184;BMP280;50485;49.768;8.636;2022-09-03T11:19:25;99985.75;;;24.59
64184;BMP280;50485;49.768;8.636;2022-09-03T11:21:54;99999.38;;;24.66
64184;BMP280;50485;49.768;8.636;2022-09-03T11:24:23;99993.91;;;24.66
64184;BMP280;50485;49.768;8.636;2022-09-03T11:27:16;99994.25;;;24.68
64184;BMP280;50485;49.768;8.636;2022-09-03T11:32:26;99980.19;;;24.66
64184;BMP280;50485;49.768;8.636;2022-09-03T11:34:54;99972.66;;;24.74
64184;BMP280;50485;49.768;8.636;2022-09-03T11:37:23;99971.63;;;24.64
64184;BMP280;50485;49.768;8.636;2022-09-03T11:42:37;99969.50;;;24.75
64184;BMP280;50485;49.768;8.636;2022-09-03T11:47:44;99971.66;;;24.61
64184;BMP280;50485;49.768;8.636;2022-09-03T11:52:45;99965.72;;;24.66
64184;BMP280;50485;49.768;8.636;2022-09-03T11:55:10;99974.72;;;24.66
64184;BMP280;50485;49.768;8.636;2022-09-03T11:57:39;99968.41;;;24.69
64184;BMP280;50485;49.768;8.636;2022-09-03T12:02:34;99954.22;;;24.78
64184;BMP280;50485;49.768;8.636;2022-09-03T12:05:16;99961.69;;;24.74
64184;BMP280;50485;49.768;8.636;2022-09-03T12:07:47;99966.78;;;24.75
64184;BMP280;50485;49.768;8.636;2022-09-03T12:20:14;99965.81;;;24.59
64184;BMP280;50485;49.768;8.636;2022-09-03T12:22:39;99959.97;;;24.57
64184;BMP280;50485;49.768;8.636;2022-09-03T12:25:09;99960.75;;;24.57
64184;BMP280;50485;49.768;8.636;2022-09-03T12:27:35;99955.97;;;24.61
64184;BMP280;50485;49.768;8.636;2022-09-03T12:30:02;99962.19;;;24.65
64184;BMP280;50485;49.768;8.636;2022-09-03T12:32:28;99959.16;;;24.60
64184;BMP280;50485;49.768;8.636;2022-09-03T12:34:56;99953.72;;;24.56
64184;BMP280;50485;49.768;8.636;2022-09-03T12:37:22;99954.03;;;24.62
64184;BMP280;50485;49.768;8.636;2022-09-03T12:39:54;99945.84;;;24.58
64184;BMP280;50485;49.768;8.636;2022-09-03T12:42:29;99941.88;;;24.63
64184;BMP280;50485;49.768;8.636;2022-09-03T12:44:55;99944.22;;;24.64
64184;BMP280;50485;49.768;8.636;2022-09-03T12:47:28;99941.19;;;24.55
64184;BMP280;50485;49.768;8.636;2022-09-03T12:49:56;99941.97;;;24.56
64184;BMP280;50485;49.768;8.636;2022-09-03T12:54:57;99938.19;;;24.46
64184;BMP280;50485;49.768;8.636;2022-09-03T12:57:26;99940.47;;;24.51
64184;BMP280;50485;49.768;8.636;2022-09-03T12:59:53;99950.56;;;24.54
64184;BMP280;50485;49.768;8.636;2022-09-03T13:02:22;99946.69;;;24.55
64184;BMP280;50485;49.768;8.636;2022-09-03T13:04:49;99949.06;;;24.53
64184;BMP280;50485;49.768;8.636;2022-09-03T13:07:24;99949.06;;;24.53
64184;BMP280;50485;49.768;8.636;2022-09-03T13:09:50;99958.84;;;24.51
64184;BMP280;50485;49.768;8.636;2022-09-03T13:12:23;99951.00;;;24.53
64184;BMP280;50485;49.768;8.636;2022-09-03T13:14:52;99956.81;;;24.58
64184;BMP280;50485;49.768;8.636;2022-09-03T13:19:46;99950.84;;;24.67
64184;BMP280;50485;49.768;8.636;2022-09-03T13:22:21;99955.03;;;24.75
64184;BMP280;50485;49.768;8.636;2022-09-03T13:30:12;99954.22;;;24.78
64184;BMP280;50485;49.768;8.636;2022-09-03T13:35:18;99957.47;;;24.69
64184;BMP280;50485;49.768;8.636;2022-09-03T13:37:47;99964.50;;;24.70
64184;BMP280;50485;49.768;8.636;2022-09-03T13:43:00;99963.34;;;24.68
64184;BMP280;50485;49.768;8.636;2022-09-03T13:47:55;99958.31;;;24.63
64184;BMP280;50485;49.768;8.636;2022-09-03T13:50:43;99952.88;;;24.59
64184;BMP280;50485;49.768;8.636;2022-09-03T13:55:40;99948.41;;;24.72
64184;BMP280;50485;49.768;8.636;2022-09-03T13:58:09;99951.78;;;24.84
64184;BMP280;50485;49.768;8.636;2022-09-03T14:00:45;99948.59;;;24.89
64184;BMP280;50485;49.768;8.636;2022-09-03T14:03:22;99942.38;;;24.85
64184;BMP280;50485;49.768;8.636;2022-09-03T14:05:54;99946.72;;;24.82
64184;BMP280;50485;49.768;8.636;2022-09-03T14:08:32;99947.13;;;24.81
64184;BMP280;50485;49.768;8.636;2022-09-03T14:11:02;99935.63;;;24.93
64184;BMP280;50485;49.768;8.636;2022-09-03T14:13:35;99937.56;;;24.92
64184;BMP280;50485;49.768;8.636;2022-09-03T14:18:45;99923.47;;;24.94
64184;BMP280;50485;49.768;8.636;2022-09-03T14:21:26;99925.84;;;24.92
64184;BMP280;50485;49.768;8.636;2022-09-03T14:26:36;99928.16;;;24.93
64184;BMP280;50485;49.768;8.636;2022-09-03T14:34:12;99927.28;;;25.00
64184;BMP280;50485;49.768;8.636;2022-09-03T14:36:52;99916.28;;;25.03
64184;BMP280;50485;49.768;8.636;2022-09-03T14:39:26;99930.03;;;25.00
64184;BMP280;50485;49.768;8.636;2022-09-03T14:44:32;99917.75;;;25.08
64184;BMP280;50485;49.768;8.636;2022-09-03T14:55:01;99923.13;;;25.15
64184;BMP280;50485;49.768;8.636;2022-09-03T15:00:15;99922.84;;;25.10
64184;BMP280;50485;49.768;8.636;2022-09-03T15:07:59;99924.44;;;25.07
64184;BMP280;50485;49.768;8.636;2022-09-03T15:10:29;99927.59;;;25.05
64184;BMP280;50485;49.768;8.636;2022-09-03T15:12:58;99928.06;;;25.00
64184;BMP280;50485;49.768;8.636;2022-09-03T15:20:49;99927.81;;;24.91
64184;BMP280;50485;49.768;8.636;2022-09-03T15:31:14;99936.53;;;24.83
64184;BMP280;50485;49.768;8.636;2022-09-03T15:36:11;99940.09;;;24.80
64184;BMP280;50485;49.768;8.636;2022-09-03T15:38:58;99939.38;;;24.75
64184;BMP280;50485;49.768;8.636;2022-09-03T15:44:10;99940.97;;;24.73
64184;BMP280;50485;49.768;8.636;2022-09-03T15:46:48;99946.09;;;24.71
64184;BMP280;50485;49.768;8.636;2022-09-03T15:55:01;99950.75;;;24.74
64184;BMP280;50485;49.768;8.636;2022-09-03T15:57:24;99948.47;;;24.69
64184;BMP280;50485;49.768;8.636;2022-09-03T15:59:52;99947.69;;;24.68
64184;BMP280;50485;49.768;8.636;2022-09-03T16:02:19;99949.22;;;24.69
64184;BMP280;50485;49.768;8.636;2022-09-03T16:07:24;99933.97;;;24.68
64184;BMP280;50485;49.768;8.636;2022-09-03T16:10:10;99943.38;;;24.67
64184;BMP280;50485;49.768;8.636;2022-09-03T16:12:47;99935.59;;;24.66
64184;BMP280;50485;49.768;8.636;2022-09-03T16:15:32;99932.06;;;24.65
64184;BMP280;50485;49.768;8.636;2022-09-03T16:18:03;99923.84;;;24.65
64184;BMP280;50485;49.768;8.636;2022-09-03T16:20:45;99944.97;;;24.65
64184;BMP280;50485;49.768;8.636;2022-09-03T16:25:55;99943.06;;;24.62
64184;BMP280;50485;49.768;8.636;2022-09-03T16:28:26;99939.97;;;24.60
64184;BMP280;50485;49.768;8.636;2022-09-03T16:38:48;99956.81;;;24.58
64184;BMP280;50485;49.768;8.636;2022-09-03T16:46:23;99952.94;;;24.56
64184;BMP280;50485;49.768;8.636;2022-09-03T16:51:39;99966.97;;;24.58
64184;BMP280;50485;49.768;8.636;2022-09-03T16:54:11;99971.69;;;24.57
64184;BMP280;50485;49.768;8.636;2022-09-03T16:59:53;99992.16;;;24.49
64184;BMP280;50485;49.768;8.636;2022-09-03T17:05:06;99995.25;;;24.51
64184;BMP280;50485;49.768;8.636;2022-09-03T17:10:16;99992.56;;;24.44
64184;BMP280;50485;49.768;8.636;2022-09-03T17:12:49;99992.59;;;24.40
64184;BMP280;50485;49.768;8.636;2022-09-03T17:15:29;99996.94;;;24.41
64184;BMP280;50485;49.768;8.636;2022-09-03T17:20:36;99999.34;;;24.36
64184;BMP280;50485;49.768;8.636;2022-09-03T17:23:24;99997.78;;;24.35
64184;BMP280;50485;49.768;8.636;2022-09-03T17:25:52;100000.06;;;24.36
64184;BMP280;50485;49.768;8.636;2022-09-03T17:28:38;99999.25;;;24.43
64184;BMP280;50485;49.768;8.636;2022-09-03T17:33:57;100002.81;;;24.40
64184;BMP280;50485;49.768;8.636;2022-09-03T17:36:26;99998.47;;;24.42
64184;BMP280;50485;49.768;8.636;2022-09-03T17:39:08;99993.00;;;24.42
64184;BMP280;50485;49.768;8.636;2022-09-03T17:41:42;99994.53;;;24.43